Terminal Aerodrome Forecast
Issued by NWS

Home | Current Version | Previous Version | Text Only | Print | Product List | Glossary On
Versions: 1 2 3 4 5 6 7 8 9 10 11 12 13 14 15 16 17 18 19
000
FTUS42 KMLB 062321
TAFISM
TAF
KISM 062321Z 0700/0724 13005KT P6SM FEW040 SCT100 BKN250
     FM070600 18003KT P6SM SCT250
     FM071400 16004KT P6SM FEW030 SCT250
     FM072000 15007KT P6SM VCTS SCT040CB BKN060
      AMD NOT SKED 0703/0712=

USA.gov is the U.S. government's official web portal to all federal, state and local government web resources and services.